createdAt,value
2019-01-19T00:01:48.209Z,32.87
2019-01-19T00:05:02.197Z,36.50
2019-01-19T00:07:49.343Z,35.27
2019-01-19T00:11:00.695Z,34.93
2019-01-19T00:13:45.397Z,29.70
2019-01-19T00:17:05.391Z,32.23
2019-01-19T00:20:17.747Z,33.37
2019-01-19T00:23:37.731Z,30.20
2019-01-19T00:26:44.786Z,38.17
2019-01-19T00:29:43.372Z,33.43
2019-01-19T00:32:25.434Z,32.37
2019-01-19T00:35:27.113Z,36.03
2019-01-19T00:38:43.807Z,33.23
2019-01-19T00:42:03.344Z,29.03
2019-01-19T00:44:50.197Z,32.63
2019-01-19T00:47:38.220Z,34.40
2019-01-19T00:50:21.999Z,31.97
2019-01-19T00:53:18.530Z,32.50
2019-01-19T00:56:38.715Z,37.73
2019-01-19T00:59:16.306Z,37.47
2019-01-19T01:02:22.335Z,34.10
2019-01-19T01:05:25.053Z,34.63
2019-01-19T01:08:25.420Z,33.70
2019-01-19T01:11:21.650Z,36.90
2019-01-19T01:14:16.993Z,33.50
2019-01-19T01:16:52.325Z,32.70
2019-01-19T01:19:58.292Z,35.10
2019-01-19T01:22:53.461Z,38.57
2019-01-19T01:26:05.757Z,35.00
2019-01-19T01:29:31.841Z,33.37
2019-01-19T01:32:42.350Z,35.53
2019-01-19T01:36:11.666Z,31.53
2019-01-19T01:39:00.584Z,33.40
2019-01-19T01:41:58.447Z,36.10
2019-01-19T01:44:49.236Z,32.97
2019-01-19T01:47:55.191Z,36.27
2019-01-19T01:50:30.524Z,36.23
2019-01-19T01:53:31.142Z,38.43
2019-01-19T01:56:06.472Z,40.37
2019-01-19T01:59:16.896Z,36.57
2019-01-19T02:02:19.404Z,33.07
2019-01-19T02:05:41.486Z,38.43
2019-01-19T02:09:08.774Z,28.27
2019-01-19T02:12:02.855Z,32.10
2019-01-19T02:14:58.732Z,41.50
2019-01-19T02:18:08.838Z,37.60
2019-01-19T02:21:15.590Z,35.57
2019-01-19T02:24:07.754Z,36.23
2019-01-19T02:27:22.921Z,31.90
2019-01-19T02:30:29.955Z,36.27
2019-01-19T02:33:42.798Z,37.63
2019-01-19T02:36:54.095Z,35.30
2019-01-19T02:40:01.441Z,31.07
2019-01-19T02:42:51.136Z,32.30
2019-01-19T02:46:05.586Z,35.77
2019-01-19T02:49:22.226Z,30.03
2019-01-19T02:52:29.603Z,36.17
2019-01-19T02:55:30.672Z,36.63
2019-01-19T02:58:47.114Z,34.90
2019-01-19T03:01:37.577Z,37.77
2019-01-19T03:04:57.976Z,37.90
2019-01-19T03:07:56.476Z,37.33
2019-01-19T03:11:05.988Z,33.80
2019-01-19T03:14:03.495Z,39.13
2019-01-19T03:17:13.824Z,37.60
2019-01-19T03:20:27.512Z,38.27
2019-01-19T03:23:23.069Z,38.27
2019-01-19T03:26:22.030Z,41.57
2019-01-19T03:29:51.676Z,42.37
2019-01-19T03:33:03.706Z,41.53
2019-01-19T03:36:04.270Z,37.63
2019-01-19T03:38:53.684Z,38.43
2019-01-19T03:41:36.065Z,42.57
2019-01-19T03:44:43.427Z,38.80
2019-01-19T03:48:00.736Z,44.27
2019-01-19T03:51:08.769Z,38.63
2019-01-19T03:54:19.941Z,44.93
2019-01-19T03:57:24.533Z,38.87
2019-01-19T04:00:15.306Z,38.77
2019-01-19T04:03:26.825Z,38.50
2019-01-19T04:06:21.263Z,41.67
2019-01-19T04:09:29.723Z,43.83
2019-01-19T04:13:01.942Z,39.90
2019-01-19T04:16:19.393Z,41.40
2019-01-19T04:19:23.479Z,37.43
2019-01-19T04:22:30.329Z,40.77
2019-01-19T04:25:41.958Z,43.27
2019-01-19T04:28:13.565Z,43.97
2019-01-19T04:30:43.867Z,40.80
2019-01-19T04:33:14.106Z,40.40
2019-01-19T04:35:44.324Z,39.53
2019-01-19T04:38:14.624Z,41.23
2019-01-19T04:40:44.918Z,40.83
2019-01-19T04:43:15.180Z,39.60
2019-01-19T04:45:45.449Z,45.27
2019-01-19T04:48:17.310Z,42.13
2019-01-19T04:50:47.579Z,43.80
2019-01-19T04:53:17.876Z,43.33
2019-01-19T04:55:48.182Z,39.97
2019-01-19T04:58:18.501Z,38.27
2019-01-19T05:00:48.797Z,45.97
2019-01-19T05:03:19.082Z,42.97
2019-01-19T05:05:49.358Z,39.13
2019-01-19T05:08:19.609Z,38.00
2019-01-19T05:10:49.910Z,42.10
2019-01-19T05:13:20.599Z,37.10
2019-01-19T05:15:50.850Z,42.50
2019-01-19T05:18:21.290Z,44.10
2019-01-19T05:20:52.177Z,41.20
2019-01-19T05:23:22.452Z,41.50
2019-01-19T05:25:52.699Z,39.07
2019-01-19T05:28:23.030Z,39.27
2019-01-19T05:30:53.349Z,38.13
2019-01-19T05:33:23.676Z,37.87
2019-01-19T05:35:54.006Z,37.07
2019-01-19T05:38:24.282Z,41.87
2019-01-19T05:40:54.550Z,36.93
2019-01-19T05:43:24.772Z,34.23
2019-01-19T05:45:55.066Z,37.10
2019-01-19T05:48:25.374Z,43.07
2019-01-19T05:50:55.684Z,43.07
2019-01-19T05:53:25.965Z,35.80
2019-01-19T05:55:56.235Z,40.17
2019-01-19T05:58:26.544Z,35.20
2019-01-19T06:00:56.813Z,38.97
2019-01-19T06:03:27.092Z,38.77
2019-01-19T06:05:57.409Z,38.17
2019-01-19T06:08:27.739Z,38.50
2019-01-19T06:10:57.976Z,36.87
2019-01-19T06:13:28.262Z,38.07
2019-01-19T06:15:58.524Z,34.53
2019-01-19T06:18:30.416Z,37.33
2019-01-19T06:21:00.686Z,40.57
2019-01-19T06:23:31.071Z,36.23
2019-01-19T06:26:01.344Z,36.33
2019-01-19T06:28:31.648Z,36.17
2019-01-19T06:31:01.967Z,40.10
2019-01-19T06:33:32.376Z,36.60
2019-01-19T06:36:02.612Z,31.57
2019-01-19T06:38:32.993Z,35.50
2019-01-19T06:41:03.236Z,32.40
2019-01-19T06:43:33.560Z,36.00
2019-01-19T06:46:03.859Z,42.93
2019-01-19T06:48:34.213Z,42.17
2019-01-19T06:51:04.463Z,38.03
2019-01-19T06:53:34.762Z,40.37
2019-01-19T06:56:05.034Z,34.20
2019-01-19T06:58:35.334Z,37.17
2019-01-19T07:01:05.828Z,35.00
2019-01-19T07:03:36.106Z,32.90
2019-01-19T07:06:06.384Z,39.80
2019-01-19T07:08:36.606Z,35.63
2019-01-19T07:11:06.858Z,42.97
2019-01-19T07:13:37.131Z,42.27
2019-01-19T07:16:07.389Z,42.53
2019-01-19T07:18:38.639Z,42.47
2019-01-19T07:21:08.805Z,46.20
2019-01-19T07:23:39.137Z,37.27
2019-01-19T07:26:09.404Z,47.93
2019-01-19T07:28:39.732Z,40.93
2019-01-19T07:31:10.102Z,41.60
2019-01-19T07:33:40.463Z,44.70
2019-01-19T07:36:10.935Z,41.00
2019-01-19T07:38:41.235Z,37.40
2019-01-19T07:41:11.635Z,38.27
2019-01-19T07:43:42.136Z,40.80
2019-01-19T07:46:12.720Z,39.43
2019-01-19T07:48:43.087Z,43.00
2019-01-19T07:51:14.339Z,41.87
2019-01-19T07:53:44.663Z,46.27
2019-01-19T07:56:14.957Z,43.63
2019-01-19T07:58:45.383Z,44.73
2019-01-19T08:01:15.629Z,39.87
2019-01-19T08:03:45.952Z,37.27
2019-01-19T08:06:16.313Z,42.13
2019-01-19T08:08:46.618Z,49.53
2019-01-19T08:11:16.922Z,42.73
2019-01-19T08:13:47.251Z,45.07
2019-01-19T08:16:17.529Z,37.97
2019-01-19T08:18:47.818Z,42.07
2019-01-19T08:21:18.126Z,44.50
2019-01-19T08:23:48.429Z,44.60
2019-01-19T08:26:18.751Z,37.00
2019-01-19T08:28:48.989Z,41.83
2019-01-19T08:31:19.289Z,43.50
2019-01-19T08:33:49.043Z,39.03
2019-01-19T08:36:19.195Z,38.97
2019-01-19T08:38:49.582Z,41.33
2019-01-19T08:41:19.839Z,42.80
2019-01-19T08:44:01.656Z,44.80
2019-01-19T08:46:31.802Z,47.40
2019-01-19T08:49:02.140Z,41.37
2019-01-19T08:51:32.413Z,39.67
2019-01-19T08:54:02.825Z,43.27
2019-01-19T08:56:33.108Z,47.13
2019-01-19T08:59:03.561Z,41.37
2019-01-19T09:01:33.756Z,44.10
2019-01-19T09:04:04.076Z,38.30
2019-01-19T09:06:34.374Z,47.53
2019-01-19T09:09:07.003Z,42.43
2019-01-19T09:11:37.193Z,41.47
2019-01-19T09:14:07.374Z,42.40
2019-01-19T09:16:51.095Z,44.53
2019-01-19T09:19:21.314Z,45.70
2019-01-19T09:21:51.761Z,42.57
2019-01-19T09:24:27.358Z,36.60
2019-01-19T09:26:57.676Z,39.37
2019-01-19T09:29:28.189Z,36.47
2019-01-19T09:31:58.687Z,35.90
2019-01-19T09:34:29.218Z,39.53
2019-01-19T09:36:59.797Z,41.37
2019-01-19T09:39:30.175Z,39.40
2019-01-19T09:42:00.447Z,42.67
2019-01-19T09:44:30.782Z,43.90
2019-01-19T09:47:01.142Z,45.10
2019-01-19T09:49:31.747Z,46.03
2019-01-19T09:52:01.469Z,45.30
2019-01-19T09:54:31.736Z,45.03
2019-01-19T09:57:02.143Z,50.90
2019-01-19T09:59:32.442Z,49.30
2019-01-19T10:02:02.798Z,46.77
2019-01-19T10:04:33.106Z,50.33
2019-01-19T10:07:03.518Z,46.20
2019-01-19T10:09:33.836Z,47.07
2019-01-19T10:12:04.304Z,53.70
2019-01-19T10:14:34.602Z,64.93
2019-01-19T10:17:04.926Z,52.13
2019-01-19T10:19:35.268Z,51.30
2019-01-19T10:22:05.511Z,46.93
2019-01-19T10:24:36.787Z,52.23
2019-01-19T10:27:07.192Z,51.13
2019-01-19T10:29:37.461Z,43.13
2019-01-19T10:32:07.811Z,47.47
2019-01-19T10:34:38.028Z,47.27
2019-01-19T10:37:08.316Z,45.60
2019-01-19T10:39:38.642Z,49.00
2019-01-19T10:42:08.907Z,54.83
2019-01-19T10:44:39.358Z,44.30
2019-01-19T10:47:09.678Z,46.80
2019-01-19T10:49:40.346Z,37.33
2019-01-19T10:52:10.739Z,43.40
2019-01-19T10:54:41.008Z,39.57
2019-01-19T10:57:11.323Z,43.17
2019-01-19T10:59:42.203Z,42.40
2019-01-19T11:02:12.359Z,36.47
2019-01-19T11:04:42.686Z,43.70
2019-01-19T11:07:13.101Z,41.50
2019-01-19T11:09:43.459Z,40.27
2019-01-19T11:12:14.564Z,38.47
2019-01-19T11:14:44.851Z,37.37
2019-01-19T11:17:15.128Z,37.13
2019-01-19T11:22:26.758Z,40.17
2019-01-19T11:24:57.103Z,41.37
2019-01-19T11:27:27.401Z,40.97
2019-01-19T11:30:06.641Z,39.90
2019-01-19T11:32:37.006Z,36.87
2019-01-19T11:35:07.431Z,40.87
2019-01-19T11:37:37.762Z,26.40
2019-01-19T11:40:11.775Z,28.00
2019-01-19T11:42:42.142Z,28.27
2019-01-19T11:45:15.338Z,31.70
2019-01-19T11:47:45.589Z,32.27
2019-01-19T11:50:16.279Z,34.80
2019-01-19T11:52:46.801Z,35.23
2019-01-19T11:55:20.453Z,44.63
2019-01-19T11:57:53.129Z,42.07
2019-01-19T12:00:28.125Z,36.30
2019-01-19T12:02:58.381Z,47.00
2019-01-19T12:05:28.676Z,36.60
2019-01-19T12:07:58.280Z,48.13
2019-01-19T12:10:29.834Z,35.47
2019-01-19T12:13:01.038Z,38.63
2019-01-19T12:15:31.356Z,36.83
2019-01-19T12:18:01.765Z,32.87
2019-01-19T12:20:40.293Z,30.13
2019-01-19T12:23:10.671Z,37.10
2019-01-19T12:25:41.003Z,32.23
2019-01-19T12:28:11.075Z,32.93
2019-01-19T12:30:41.502Z,34.03
2019-01-19T12:33:11.867Z,35.63
2019-01-19T12:35:42.121Z,31.43
2019-01-19T12:38:15.712Z,35.67
2019-01-19T12:40:46.498Z,35.80
2019-01-19T12:43:19.580Z,30.77
2019-01-19T12:45:55.502Z,38.13
2019-01-19T12:48:25.260Z,38.33
2019-01-19T12:50:55.545Z,46.03
2019-01-19T12:53:26.129Z,35.27
2019-01-19T12:55:56.555Z,34.93
2019-01-19T12:58:26.825Z,34.47
2019-01-19T13:00:57.366Z,38.17
2019-01-19T13:03:27.634Z,34.67
2019-01-19T13:06:51.996Z,38.40
2019-01-19T13:09:35.061Z,35.47
2019-01-19T13:12:32.438Z,42.03
2019-01-19T13:15:57.944Z,45.73
2019-01-19T13:18:57.766Z,37.23
2019-01-19T13:22:14.785Z,42.50
2019-01-19T13:25:10.369Z,36.27
2019-01-19T13:28:17.374Z,35.87
2019-01-19T13:31:24.587Z,37.60
2019-01-19T13:34:22.720Z,49.33
2019-01-19T13:37:34.032Z,35.87
2019-01-19T13:40:48.387Z,38.33
2019-01-19T13:44:01.880Z,34.27
2019-01-19T13:47:32.230Z,39.27
2019-01-19T13:50:30.186Z,35.87
2019-01-19T13:53:19.987Z,29.93
2019-01-19T13:56:12.562Z,30.53
2019-01-19T13:59:01.304Z,29.07
2019-01-19T14:02:19.402Z,31.07
2019-01-19T14:05:28.611Z,32.43
2019-01-19T14:08:36.739Z,31.77
2019-01-19T14:11:18.882Z,31.97
2019-01-19T14:14:31.307Z,29.60
2019-01-19T14:17:41.455Z,27.07
2019-01-19T14:20:28.807Z,28.37
2019-01-19T14:23:27.822Z,34.33
2019-01-19T14:26:28.367Z,30.07
2019-01-19T14:29:45.948Z,25.20
2019-01-19T14:32:55.617Z,27.23
2019-01-19T14:36:04.173Z,30.20
2019-01-19T14:39:11.596Z,33.13
2019-01-19T14:42:29.007Z,32.73
2019-01-19T14:45:23.308Z,33.40
2019-01-19T14:48:26.654Z,31.43
2019-01-19T14:51:48.678Z,32.07
2019-01-19T14:58:07.305Z,36.10
2019-01-19T15:01:14.994Z,32.00
2019-01-19T15:04:16.207Z,40.80
2019-01-19T15:07:39.517Z,43.43
2019-01-19T15:10:41.783Z,37.30
2019-01-19T15:13:51.872Z,40.40
2019-01-19T15:16:50.653Z,36.83
2019-01-19T15:20:03.644Z,40.27
2019-01-19T15:23:09.024Z,36.67
2019-01-19T15:25:52.024Z,41.03
2019-01-19T15:29:14.613Z,42.27
2019-01-19T15:32:25.926Z,43.03
2019-01-19T15:35:50.845Z,41.73
2019-01-19T15:38:50.761Z,43.93
2019-01-19T15:41:43.095Z,41.63
2019-01-19T15:45:09.060Z,38.30
2019-01-19T15:48:20.657Z,40.20
2019-01-19T15:51:29.543Z,41.90
2019-01-19T15:54:30.764Z,40.97
2019-01-19T15:57:39.282Z,45.57
2019-01-19T16:01:11.850Z,44.73
2019-01-19T16:04:11.312Z,44.87
2019-01-19T16:07:20.585Z,46.00
2019-01-19T16:10:24.695Z,48.80
2019-01-19T16:13:42.695Z,43.93
2019-01-19T16:16:28.709Z,43.77
2019-01-19T16:19:23.716Z,40.93
2019-01-19T16:22:21.996Z,48.80
2019-01-19T16:25:27.415Z,46.43
2019-01-19T16:28:46.464Z,46.83
2019-01-19T16:31:54.668Z,52.37
2019-01-19T16:35:01.634Z,57.63
2019-01-19T16:38:05.026Z,56.20
2019-01-19T16:40:56.605Z,61.20
2019-01-19T16:44:08.978Z,60.90
2019-01-19T16:47:35.988Z,60.07
2019-01-19T16:50:39.343Z,54.03
2019-01-19T16:53:52.576Z,59.37
2019-01-19T16:56:56.783Z,54.47
2019-01-19T16:59:52.234Z,62.00
2019-01-19T17:03:05.151Z,62.97
2019-01-19T17:06:25.525Z,69.40
2019-01-19T17:09:21.826Z,63.27
2019-01-19T17:12:36.574Z,58.63
2019-01-19T17:15:31.955Z,55.67
2019-01-19T17:18:32.162Z,56.63
2019-01-19T17:21:51.860Z,55.23
2019-01-19T17:25:18.353Z,61.93
2019-01-19T17:28:15.318Z,58.17
2019-01-19T17:31:28.300Z,62.93
2019-01-19T17:34:27.505Z,66.53
2019-01-19T17:37:10.218Z,64.07
2019-01-19T17:40:30.674Z,59.63
2019-01-19T17:43:28.082Z,63.03
2019-01-19T17:46:33.666Z,60.13
2019-01-19T17:49:34.568Z,57.27
2019-01-19T17:52:49.607Z,68.87
2019-01-19T17:55:44.849Z,59.60
2019-01-19T17:58:51.644Z,65.03
2019-01-19T18:01:59.612Z,67.53
2019-01-19T18:05:07.617Z,67.53
2019-01-19T18:08:13.562Z,59.50
2019-01-19T18:11:33.631Z,64.93
2019-01-19T18:14:40.695Z,68.37
2019-01-19T18:18:04.132Z,71.70
2019-01-19T18:21:01.134Z,60.47
2019-01-19T18:24:11.015Z,67.43
2019-01-19T18:27:01.614Z,71.23
2019-01-19T18:30:09.201Z,72.10
2019-01-19T18:33:25.751Z,81.93
2019-01-19T18:36:15.983Z,62.23
2019-01-19T18:39:12.974Z,71.90
2019-01-19T18:42:21.254Z,75.40
2019-01-19T18:45:15.526Z,67.57
2019-01-19T18:48:18.313Z,73.57
2019-01-19T18:51:17.824Z,76.33
2019-01-19T18:54:24.863Z,76.13
2019-01-19T18:57:34.674Z,76.97
2019-01-19T19:00:51.898Z,79.70
2019-01-19T19:04:05.897Z,77.47
2019-01-19T19:07:08.118Z,73.67
2019-01-19T19:10:16.727Z,77.30
2019-01-19T19:13:46.329Z,73.40
2019-01-19T19:16:47.753Z,71.60
2019-01-19T19:19:44.980Z,81.03
2019-01-19T19:22:58.346Z,81.67
2019-01-19T19:26:09.731Z,82.53
2019-01-19T19:29:25.826Z,71.03
2019-01-19T19:32:49.446Z,73.77
2019-01-19T19:35:55.825Z,75.77
2019-01-19T19:39:22.752Z,76.83
2019-01-19T19:42:38.980Z,67.13
2019-01-19T19:45:48.840Z,74.70
2019-01-19T19:48:45.575Z,80.87
2019-01-19T19:51:55.004Z,82.17
2019-01-19T19:54:27.238Z,76.90
2019-01-19T19:56:58.147Z,81.60
2019-01-19T19:59:28.653Z,89.03
2019-01-19T20:02:02.049Z,78.57
2019-01-19T20:04:32.527Z,83.60
2019-01-19T20:07:02.956Z,78.37
2019-01-19T20:09:33.408Z,76.60
2019-01-19T20:12:07.977Z,78.07
2019-01-19T20:14:39.744Z,80.10
2019-01-19T20:17:10.092Z,72.33
2019-01-19T20:19:40.443Z,74.43
2019-01-19T20:22:10.775Z,77.80
2019-01-19T20:24:41.089Z,86.60
2019-01-19T20:27:11.418Z,86.17
2019-01-19T20:29:41.801Z,89.10
2019-01-19T20:32:12.222Z,86.10
2019-01-19T20:34:42.647Z,93.70
2019-01-19T20:37:13.993Z,100.40
2019-01-19T20:39:44.426Z,103.47
2019-01-19T20:42:14.751Z,105.70
2019-01-19T20:44:45.998Z,104.67
2019-01-19T20:47:16.313Z,102.83
2019-01-19T20:49:46.760Z,100.67
2019-01-19T20:52:17.082Z,91.13
2019-01-19T20:54:47.406Z,96.07
2019-01-19T20:57:18.900Z,102.37
2019-01-19T20:59:50.402Z,105.20
2019-01-19T21:02:21.653Z,100.53
2019-01-19T21:04:51.995Z,102.23
2019-01-19T21:07:22.338Z,97.53
2019-01-19T21:09:53.074Z,103.63
2019-01-19T21:12:23.445Z,96.87
2019-01-19T21:14:53.823Z,91.30
2019-01-19T21:17:24.175Z,98.03
2019-01-19T21:19:55.094Z,92.43
2019-01-19T21:22:25.489Z,103.50
2019-01-19T21:24:55.884Z,98.77
2019-01-19T21:27:26.175Z,105.07
2019-01-19T21:29:56.502Z,103.60
2019-01-19T21:32:26.838Z,100.63
2019-01-19T21:34:58.070Z,99.73
2019-01-19T21:37:28.415Z,108.10
2019-01-19T21:40:01.532Z,104.80
2019-01-19T21:51:15.047Z,102.87
2019-01-19T21:56:40.867Z,96.07
2019-01-19T21:59:11.188Z,101.23
2019-01-19T22:01:41.618Z,106.13
2019-01-19T22:04:11.940Z,95.37
2019-01-19T22:06:42.164Z,96.97
2019-01-19T22:09:12.776Z,105.87
2019-01-19T22:14:19.259Z,94.97
2019-01-19T22:16:49.689Z,92.50
2019-01-19T22:19:20.037Z,92.03
2019-01-19T22:21:50.524Z,95.77
2019-01-19T22:24:20.861Z,98.93
2019-01-19T22:26:52.413Z,89.73
2019-01-19T22:29:22.757Z,88.40
2019-01-19T22:31:53.103Z,92.40
2019-01-19T22:34:23.405Z,92.07
2019-01-19T22:36:53.802Z,91.83
2019-01-19T22:39:24.035Z,89.93
2019-01-19T22:41:54.360Z,103.20
2019-01-19T22:44:24.649Z,104.30
2019-01-19T22:46:55.006Z,95.53
2019-01-19T22:49:25.267Z,94.13
2019-01-19T22:51:55.629Z,96.67
2019-01-19T22:54:26.003Z,97.03
2019-01-19T22:56:56.336Z,102.93
2019-01-19T22:59:26.595Z,93.67
2019-01-19T23:01:59.735Z,93.43
2019-01-19T23:04:30.069Z,102.70
2019-01-19T23:07:00.354Z,99.43
2019-01-19T23:09:30.669Z,106.47
2019-01-19T23:12:00.940Z,99.23
2019-01-19T23:14:32.663Z,98.73
2019-01-19T23:17:03.013Z,105.40
2019-01-19T23:19:33.271Z,100.60
2019-01-19T23:22:03.661Z,105.50
2019-01-19T23:24:33.910Z,112.60
2019-01-19T23:27:06.416Z,106.03
2019-01-19T23:29:36.687Z,108.90
2019-01-19T23:32:06.967Z,111.17
2019-01-19T23:34:37.291Z,102.53
2019-01-19T23:37:07.543Z,119.30
2019-01-19T23:39:37.909Z,118.77
2019-01-19T23:42:08.185Z,117.40
2019-01-19T23:44:38.459Z,119.40
2019-01-19T23:47:08.781Z,113.53
2019-01-19T23:49:39.055Z,123.80
2019-01-19T23:52:09.355Z,119.77
2019-01-19T23:54:39.664Z,114.33
2019-01-19T23:57:09.923Z,113.67
2019-01-19T23:59:40.228Z,125.37
